Time;durP1;ratioP1;P1;durP2;ratioP2;P2;SDS_P1;SDS_P2;PMS_P1;PMS_P2;Temp;Humidity;BMP_temperature;BMP_pressure;BME280_temperature;BME280_humidity;BME280_pressure;Samples;Min_cycle;Max_cycle;Signal;HPM_P1;HPM_P2
2021/06/27 00:00:20;;;;;;;15.95;9.55;;;20.20;80.60;;;;;;4999400;28;20030;-90
2021/06/27 00:02:46;;;;;;;15.10;9.07;;;20.10;80.60;;;;;;4980491;28;20034;-89
2021/06/27 00:05:14;;;;;;;15.07;9.20;;;20.20;80.70;;;;;;4980458;28;20031;-90
2021/06/27 00:07:40;;;;;;;16.30;9.93;;;20.10;80.80;;;;;;4979429;28;20166;-91
2021/06/27 00:10:10;;;;;;;17.67;9.90;;;20.10;81.00;;;;;;4998668;28;20022;-91
2021/06/27 00:12:36;;;;;;;16.05;9.35;;;20.10;81.10;;;;;;4980682;28;20109;-90
2021/06/27 00:15:06;;;;;;;18.17;9.77;;;20.10;81.00;;;;;;4981444;28;20061;-90
2021/06/27 00:17:32;;;;;;;16.00;9.43;;;20.10;81.10;;;;;;4981249;28;20096;-89
2021/06/27 00:19:57;;;;;;;15.55;8.75;;;20.10;81.10;;;;;;4981058;28;20031;-90
2021/06/27 00:22:23;;;;;;;14.05;8.38;;;20.00;81.00;;;;;;4987659;28;20027;-89
2021/06/27 00:24:49;;;;;;;14.95;9.38;;;20.00;81.10;;;;;;5008526;28;20030;-90
2021/06/27 00:27:14;;;;;;;14.85;8.80;;;20.00;81.20;;;;;;4990455;28;20018;-90
2021/06/27 00:29:40;;;;;;;15.43;8.95;;;20.00;81.20;;;;;;5012619;28;20057;-90
2021/06/27 00:32:06;;;;;;;15.68;9.02;;;20.00;81.20;;;;;;4982094;28;20426;-90
2021/06/27 00:34:32;;;;;;;15.70;9.27;;;20.00;81.20;;;;;;4983296;28;20076;-87
2021/06/27 00:36:58;;;;;;;15.15;9.52;;;20.00;81.20;;;;;;5000241;28;20042;-90
2021/06/27 00:39:24;;;;;;;18.98;10.00;;;20.10;81.30;;;;;;4997843;28;20038;-89
2021/06/27 00:41:50;;;;;;;14.30;9.13;;;20.00;81.20;;;;;;4979668;28;20029;-90
2021/06/27 00:44:21;;;;;;;14.23;8.90;;;20.00;81.10;;;;;;4980048;28;20455;-90
2021/06/27 00:46:52;;;;;;;15.73;9.57;;;20.00;81.20;;;;;;4980295;28;20104;-90
2021/06/27 00:49:18;;;;;;;13.93;8.48;;;20.00;81.20;;;;;;4998168;28;20038;-90
2021/06/27 00:51:44;;;;;;;17.92;9.73;;;20.00;81.30;;;;;;4979777;28;20034;-90
2021/06/27 00:54:10;;;;;;;19.65;10.43;;;20.00;81.30;;;;;;4997741;28;20036;-90
2021/06/27 00:56:36;;;;;;;17.17;9.52;;;19.90;81.30;;;;;;4980827;28;20072;-89
2021/06/27 00:59:02;;;;;;;16.02;10.25;;;19.90;81.50;;;;;;4996598;28;20037;-90
2021/06/27 01:01:28;;;;;;;17.02;10.38;;;19.90;81.50;;;;;;4998001;28;20038;-89
2021/06/27 01:03:54;;;;;;;15.23;10.00;;;19.90;81.50;;;;;;5017363;28;20031;-89
2021/06/27 01:06:19;;;;;;;17.58;9.60;;;19.90;81.60;;;;;;4991540;28;20093;-90
2021/06/27 01:08:45;;;;;;;16.10;9.63;;;19.90;81.70;;;;;;4999473;28;20042;-90
2021/06/27 01:11:11;;;;;;;16.88;9.55;;;20.00;81.70;;;;;;4984956;28;20030;-89
2021/06/27 01:13:37;;;;;;;15.77;8.60;;;20.00;81.70;;;;;;4980322;28;20121;-89
2021/06/27 01:16:03;;;;;;;17.27;10.38;;;20.00;81.70;;;;;;4998950;28;20471;-89
2021/06/27 01:18:29;;;;;;;18.27;9.90;;;20.00;81.60;;;;;;5001799;28;20410;-88
2021/06/27 01:20:55;;;;;;;15.10;10.02;;;20.00;81.60;;;;;;4997093;28;20097;-90
2021/06/27 01:23:21;;;;;;;17.77;10.23;;;20.00;81.60;;;;;;4980307;28;20022;-90
2021/06/27 01:25:53;;;;;;;19.38;10.30;;;20.00;81.60;;;;;;4996418;28;20068;-89
2021/06/27 01:28:19;;;;;;;19.42;10.57;;;20.00;81.70;;;;;;4997658;28;20034;-89
2021/06/27 01:30:46;;;;;;;18.55;11.10;;;20.00;81.90;;;;;;4979149;28;20054;-89
2021/06/27 01:33:17;;;;;;;18.95;11.20;;;19.90;81.90;;;;;;4979537;28;20045;-90
2021/06/27 01:35:44;;;;;;;19.40;10.60;;;19.90;82.10;;;;;;4998695;28;20023;-90
2021/06/27 01:38:15;;;;;;;20.20;10.63;;;19.80;82.20;;;;;;4983003;28;20022;-91
2021/06/27 01:40:42;;;;;;;21.83;10.98;;;19.80;82.50;;;;;;4980031;28;20022;-90
2021/06/27 01:43:18;;;;;;;19.73;11.77;;;19.80;82.50;;;;;;4979162;28;20026;-90
2021/06/27 01:45:47;;;;;;;20.52;11.25;;;19.80;82.80;;;;;;4996634;28;20027;-89
2021/06/27 01:48:13;;;;;;;19.92;11.68;;;19.70;82.80;;;;;;4980126;28;20474;-89
2021/06/27 01:50:42;;;;;;;21.35;12.93;;;19.70;82.90;;;;;;4984638;28;20018;-88
2021/06/27 01:53:11;;;;;;;21.95;12.40;;;19.70;83.10;;;;;;5005014;28;20026;-88
2021/06/27 01:55:37;;;;;;;18.00;10.75;;;19.70;83.20;;;;;;4987783;28;20034;-89
2021/06/27 01:58:03;;;;;;;22.67;12.00;;;19.70;83.30;;;;;;5005498;28;20038;-90
2021/06/27 02:00:30;;;;;;;17.50;11.23;;;19.60;83.30;;;;;;4992892;28;20026;-90
2021/06/27 02:02:56;;;;;;;19.52;11.60;;;19.60;83.50;;;;;;4992056;28;20093;-89
2021/06/27 02:05:22;;;;;;;20.42;11.35;;;19.60;83.50;;;;;;5016532;28;20014;-89
2021/06/27 02:07:48;;;;;;;20.90;11.63;;;19.60;83.70;;;;;;5000090;28;20034;-89
2021/06/27 02:10:23;;;;;;;20.63;11.82;;;19.60;83.80;;;;;;5000672;28;20053;-90
2021/06/27 02:12:53;;;;;;;19.23;11.65;;;19.50;83.80;;;;;;4983959;28;20018;-90
2021/06/27 02:15:19;;;;;;;20.05;11.85;;;19.50;83.90;;;;;;4980522;28;20466;-89
2021/06/27 02:18:12;;;;;;;22.10;12.73;;;19.50;84.00;;;;;;4979077;28;20036;-89
2021/06/27 02:20:38;;;;;;;21.00;11.25;;;19.50;84.10;;;;;;4978787;28;20037;-90
2021/06/27 02:23:04;;;;;;;23.55;12.02;;;19.40;84.10;;;;;;4995516;28;20447;-89
2021/06/27 02:25:30;;;;;;;24.05;12.02;;;19.40;84.20;;;;;;4996247;28;20034;-88
2021/06/27 02:27:56;;;;;;;21.70;12.70;;;19.40;84.30;;;;;;4977691;28;20090;-89
2021/06/27 02:30:22;;;;;;;22.20;12.80;;;19.40;84.60;;;;;;4978821;28;20034;-89
2021/06/27 02:32:48;;;;;;;21.40;12.57;;;19.40;84.60;;;;;;4983541;28;20027;-89
2021/06/27 02:35:14;;;;;;;23.75;12.75;;;19.40;85.30;;;;;;4979435;28;20046;-89
2021/06/27 02:37:42;;;;;;;21.30;12.05;;;19.40;84.70;;;;;;4991061;28;20064;-90
2021/06/27 02:40:09;;;;;;;25.15;14.05;;;19.40;84.70;;;;;;4978813;28;20120;-90
2021/06/27 02:42:36;;;;;;;23.95;12.88;;;19.40;84.80;;;;;;4978350;28;20478;-89
2021/06/27 02:45:06;;;;;;;22.23;12.50;;;19.40;84.80;;;;;;4976640;28;20041;-89
2021/06/27 02:47:32;;;;;;;23.17;13.00;;;19.30;84.90;;;;;;4961724;28;20046;-89
2021/06/27 02:49:57;;;;;;;26.77;13.60;;;19.30;84.90;;;;;;4976893;28;20038;-90
2021/06/27 02:52:23;;;;;;;21.05;12.65;;;19.30;85.00;;;;;;4978915;28;20085;-89
2021/06/27 02:54:48;;;;;;;26.70;13.70;;;19.30;85.10;;;;;;4977613;28;20018;-89
2021/06/27 02:57:14;;;;;;;28.48;13.50;;;19.30;85.20;;;;;;4981940;28;20054;-89
2021/06/27 02:59:40;;;;;;;24.08;12.85;;;19.30;85.20;;;;;;4995036;28;20073;-90
2021/06/27 03:02:05;;;;;;;25.33;13.65;;;19.30;85.30;;;;;;4995164;28;20022;-89
2021/06/27 03:04:31;;;;;;;22.20;12.15;;;19.30;85.50;;;;;;4985973;28;20029;-89
2021/06/27 03:06:57;;;;;;;24.83;13.10;;;19.20;85.50;;;;;;5008181;28;20082;-89
2021/06/27 03:09:22;;;;;;;23.38;13.10;;;19.20;85.50;;;;;;4997695;28;20039;-90
2021/06/27 03:11:48;;;;;;;23.00;12.13;;;19.20;85.60;;;;;;4978663;28;20085;-91
2021/06/27 03:14:14;;;;;;;20.77;12.18;;;19.20;85.60;;;;;;4987688;28;20053;-89
2021/06/27 03:16:39;;;;;;;22.30;12.95;;;19.20;85.80;;;;;;5015653;28;20041;-89
2021/06/27 03:19:05;;;;;;;24.73;13.25;;;19.20;85.80;;;;;;4983635;28;20041;-89
2021/06/27 03:21:31;;;;;;;24.83;13.30;;;19.20;86.00;;;;;;4977638;28;20041;-90
2021/06/27 03:23:56;;;;;;;28.98;13.63;;;19.10;85.90;;;;;;4977371;28;20023;-89
2021/06/27 03:26:22;;;;;;;23.77;12.75;;;19.10;86.00;;;;;;4977731;28;20061;-88
2021/06/27 03:28:52;;;;;;;25.73;13.65;;;19.10;86.00;;;;;;4977792;28;20034;-89
2021/06/27 03:31:18;;;;;;;23.33;12.50;;;19.10;86.00;;;;;;4994335;28;20062;-90
2021/06/27 03:33:44;;;;;;;25.95;14.38;;;19.10;86.10;;;;;;4984964;28;20462;-88
2021/06/27 03:36:09;;;;;;;22.80;12.73;;;19.10;86.10;;;;;;5009830;28;20034;-88
2021/06/27 03:41:01;;;;;;;25.10;13.32;;;19.10;86.30;;;;;;4994636;28;20030;-89
2021/06/27 03:43:26;;;;;;;24.15;13.35;;;19.10;86.30;;;;;;4976504;28;20031;-92
2021/06/27 03:45:52;;;;;;;21.88;12.82;;;19.10;87.00;;;;;;4974361;28;20085;-92
2021/06/27 03:48:19;;;;;;;25.70;13.98;;;19.10;86.50;;;;;;4977384;28;20035;-92
2021/06/27 03:50:44;;;;;;;24.88;12.73;;;19.10;86.50;;;;;;4977271;28;20030;-93
2021/06/27 03:53:10;;;;;;;24.02;12.38;;;19.10;86.50;;;;;;4978871;28;20525;-92
2021/06/27 03:55:36;;;;;;;24.60;13.73;;;19.00;86.50;;;;;;4979128;28;20026;-91
2021/06/27 03:58:02;;;;;;;24.27;13.68;;;19.00;86.50;;;;;;4978756;28;20066;-91
2021/06/27 04:00:27;;;;;;;24.27;13.52;;;19.00;86.50;;;;;;4997574;28;20026;-92
2021/06/27 04:02:53;;;;;;;25.20;13.40;;;19.00;86.60;;;;;;4984967;28;20124;-92
2021/06/27 04:05:19;;;;;;;25.38;12.95;;;19.00;86.60;;;;;;4994434;28;20529;-91
2021/06/27 04:07:45;;;;;;;24.98;12.50;;;19.10;86.70;;;;;;4993132;28;20069;-91
2021/06/27 04:10:11;;;;;;;24.17;12.50;;;19.00;86.70;;;;;;4987992;28;20033;-93
2021/06/27 04:12:37;;;;;;;24.23;11.98;;;19.00;86.70;;;;;;4986283;28;20045;-92
2021/06/27 04:15:05;;;;;;;22.45;12.60;;;19.10;86.80;;;;;;4987106;28;20022;-92
2021/06/27 04:17:31;;;;;;;22.20;12.35;;;19.10;86.80;;;;;;4985318;28;20041;-91
2021/06/27 04:19:57;;;;;;;23.63;12.75;;;19.10;86.80;;;;;;4986891;28;20371;-91
2021/06/27 04:22:23;;;;;;;22.63;12.65;;;19.10;86.80;;;;;;5009210;28;20030;-92
2021/06/27 04:24:49;;;;;;;25.80;13.43;;;19.10;86.80;;;;;;5000397;28;20102;-88
2021/06/27 04:27:14;;;;;;;25.65;13.13;;;19.10;86.70;;;;;;4983392;28;20058;-92
2021/06/27 04:29:40;;;;;;;20.92;12.48;;;19.10;86.70;;;;;;4998970;28;20053;-87
2021/06/27 04:32:06;;;;;;;23.50;12.63;;;19.20;86.70;;;;;;4977724;28;20479;-87
2021/06/27 04:34:32;;;;;;;22.75;12.30;;;19.20;86.60;;;;;;4979476;28;20019;-92
2021/06/27 04:36:58;;;;;;;22.58;12.73;;;19.20;86.50;;;;;;4977976;28;20034;-81
2021/06/27 04:39:24;;;;;;;19.50;11.25;;;19.20;86.30;;;;;;4978435;28;20037;-85
2021/06/27 04:41:49;;;;;;;21.75;11.45;;;19.30;86.20;;;;;;4995560;28;20129;-87
2021/06/27 04:44:15;;;;;;;23.73;12.63;;;19.30;86.20;;;;;;4975889;28;20030;-79
2021/06/27 04:46:41;;;;;;;21.55;11.40;;;19.30;86.10;;;;;;4975066;28;20602;-78
2021/06/27 04:49:08;;;;;;;22.00;12.05;;;19.40;86.00;;;;;;4991910;28;20497;-78
2021/06/27 04:51:35;;;;;;;22.55;11.77;;;19.30;85.90;;;;;;4992285;28;20490;-78
2021/06/27 04:54:00;;;;;;;22.08;11.65;;;19.40;86.00;;;;;;4974445;28;20022;-78
2021/06/27 04:56:26;;;;;;;20.15;11.88;;;19.40;85.90;;;;;;4974935;28;20030;-78
2021/06/27 04:58:52;;;;;;;22.35;11.70;;;19.40;85.80;;;;;;4992654;28;20046;-79
2021/06/27 05:01:18;;;;;;;20.00;10.70;;;19.50;85.80;;;;;;4977118;28;20022;-77
2021/06/27 05:03:43;;;;;;;18.45;10.65;;;19.50;85.60;;;;;;4994260;28;20379;-77
2021/06/27 05:06:09;;;;;;;24.65;12.07;;;19.60;85.60;;;;;;4993699;28;20471;-78
2021/06/27 05:08:35;;;;;;;20.45;11.55;;;19.60;85.40;;;;;;4994357;28;20159;-77
2021/06/27 05:11:00;;;;;;;18.95;10.77;;;19.70;85.40;;;;;;4993761;28;20026;-77
2021/06/27 05:13:26;;;;;;;18.67;11.02;;;19.70;85.30;;;;;;4975721;28;20022;-77
2021/06/27 05:15:52;;;;;;;20.63;11.07;;;19.70;85.20;;;;;;4976503;28;20391;-81
2021/06/27 05:18:19;;;;;;;21.58;11.73;;;19.80;85.10;;;;;;4994235;28;20046;-77
2021/06/27 05:20:46;;;;;;;19.52;10.75;;;19.80;85.10;;;;;;4976813;28;20077;-82
2021/06/27 05:23:11;;;;;;;21.40;10.90;;;19.80;85.10;;;;;;4976651;28;20026;-84
2021/06/27 05:25:37;;;;;;;18.25;9.77;;;19.80;85.00;;;;;;4978515;28;20038;-83
2021/06/27 05:28:03;;;;;;;20.48;10.90;;;19.90;85.60;;;;;;4984210;28;20380;-83
2021/06/27 05:30:30;;;;;;;20.17;10.73;;;19.90;84.90;;;;;;4990024;28;20022;-83
2021/06/27 05:32:55;;;;;;;19.02;11.13;;;19.90;84.70;;;;;;4991769;28;20030;-83
2021/06/27 05:35:21;;;;;;;21.33;11.20;;;19.90;84.60;;;;;;4993234;28;20517;-81
2021/06/27 05:37:47;;;;;;;22.08;10.63;;;19.90;84.50;;;;;;4984867;28;20206;-82
2021/06/27 05:40:13;;;;;;;20.50;11.00;;;20.00;84.50;;;;;;4975664;28;20022;-81
2021/06/27 05:42:39;;;;;;;16.83;10.13;;;20.00;84.50;;;;;;4976469;28;20065;-85
2021/06/27 05:45:06;;;;;;;21.95;10.57;;;20.00;84.50;;;;;;4975803;28;20064;-79
2021/06/27 05:47:32;;;;;;;17.00;10.05;;;20.00;84.40;;;;;;4976065;28;20029;-81
2021/06/27 05:49:57;;;;;;;20.20;10.77;;;20.00;84.30;;;;;;4975072;28;20023;-82
2021/06/27 05:52:23;;;;;;;16.70;9.63;;;20.00;84.20;;;;;;4975884;28;20023;-82
2021/06/27 05:54:49;;;;;;;18.38;9.70;;;20.00;84.20;;;;;;4976201;28;20328;-81
2021/06/27 05:57:15;;;;;;;19.88;10.60;;;20.00;84.20;;;;;;4975360;28;20173;-82
2021/06/27 05:59:41;;;;;;;19.95;10.45;;;20.00;84.00;;;;;;4993585;28;20058;-82
2021/06/27 06:02:07;;;;;;;19.30;10.00;;;20.00;84.00;;;;;;4975398;28;20459;-82
2021/06/27 06:04:33;;;;;;;15.93;8.85;;;20.10;84.00;;;;;;4993654;28;20521;-81
2021/06/27 06:06:58;;;;;;;19.52;10.20;;;20.10;83.90;;;;;;4975592;28;20030;-82
2021/06/27 06:09:24;;;;;;;18.33;9.38;;;20.20;83.90;;;;;;4975563;28;20050;-81
2021/06/27 06:11:50;;;;;;;19.77;11.05;;;20.20;83.90;;;;;;4975928;28;20081;-82
2021/06/27 06:14:15;;;;;;;20.38;10.32;;;20.20;83.70;;;;;;4975089;28;20241;-81
2021/06/27 06:16:45;;;;;;;19.85;9.95;;;20.30;83.60;;;;;;4975763;28;20022;-82
2021/06/27 06:19:11;;;;;;;19.30;9.77;;;20.30;83.40;;;;;;4975183;28;20033;-82
2021/06/27 06:21:37;;;;;;;19.30;10.60;;;20.40;83.20;;;;;;4975581;28;20529;-82
2021/06/27 06:24:04;;;;;;;16.20;9.25;;;20.50;83.10;;;;;;4991887;28;20026;-80
2021/06/27 06:26:29;;;;;;;19.90;10.65;;;20.50;83.00;;;;;;4975447;28;20022;-82
2021/06/27 06:28:55;;;;;;;15.88;9.48;;;20.50;82.90;;;;;;4975218;28;20031;-82
2021/06/27 06:31:20;;;;;;;19.85;11.45;;;20.60;83.00;;;;;;4992329;28;20459;-81
2021/06/27 06:33:47;;;;;;;17.83;10.43;;;20.60;82.80;;;;;;4992944;28;20053;-81
2021/06/27 06:36:12;;;;;;;15.77;9.60;;;20.60;82.70;;;;;;4992330;28;20483;-81
2021/06/27 06:38:38;;;;;;;18.48;9.90;;;20.60;82.60;;;;;;4975150;28;20061;-82
2021/06/27 06:41:04;;;;;;;18.70;10.20;;;20.70;82.60;;;;;;4974859;28;20018;-82
2021/06/27 06:43:30;;;;;;;19.13;10.40;;;20.70;82.50;;;;;;4993246;28;20022;-82
2021/06/27 06:45:56;;;;;;;19.58;9.60;;;20.70;82.40;;;;;;4975293;28;20037;-81
2021/06/27 06:48:21;;;;;;;17.40;9.68;;;20.70;82.30;;;;;;4974648;28;20037;-81
2021/06/27 06:50:47;;;;;;;18.13;9.90;;;20.80;82.20;;;;;;4975398;28;20098;-81
2021/06/27 06:53:13;;;;;;;17.67;9.85;;;20.80;82.00;;;;;;4974709;28;20030;-80
2021/06/27 06:55:38;;;;;;;15.77;9.52;;;20.80;81.90;;;;;;4975310;28;20061;-81
2021/06/27 06:58:05;;;;;;;19.05;10.70;;;20.80;81.80;;;;;;4974578;28;20033;-81
2021/06/27 07:00:30;;;;;;;16.48;9.55;;;20.90;81.80;;;;;;4974840;28;20487;-81
2021/06/27 07:02:56;;;;;;;16.95;9.68;;;20.90;81.80;;;;;;4975030;28;20029;-81
2021/06/27 07:05:22;;;;;;;18.27;10.05;;;20.90;81.70;;;;;;4991175;28;20407;-82
2021/06/27 07:07:47;;;;;;;17.25;9.93;;;20.90;81.50;;;;;;4974676;28;20487;-81
2021/06/27 07:10:14;;;;;;;15.55;8.60;;;21.00;81.50;;;;;;4973979;28;20033;-81
2021/06/27 07:12:41;;;;;;;17.75;9.80;;;21.00;81.30;;;;;;4975134;28;20018;-81
2021/06/27 07:15:08;;;;;;;14.65;9.30;;;21.10;81.10;;;;;;4974576;28;20064;-82
2021/06/27 07:17:34;;;;;;;19.65;10.25;;;21.20;80.90;;;;;;4975049;28;20015;-81
2021/06/27 07:19:59;;;;;;;18.95;9.73;;;21.30;80.80;;;;;;4975123;28;20034;-81
2021/06/27 07:22:25;;;;;;;17.98;9.45;;;21.30;80.50;;;;;;4974704;28;20143;-81
2021/06/27 07:24:51;;;;;;;19.30;10.35;;;21.50;80.40;;;;;;4975158;28;20057;-81
2021/06/27 07:27:16;;;;;;;14.43;8.57;;;21.50;80.30;;;;;;4991705;28;20368;-81
2021/06/27 07:29:42;;;;;;;17.52;9.43;;;21.60;80.10;;;;;;4974814;28;20113;-81
2021/06/27 07:32:08;;;;;;;16.48;9.77;;;21.60;80.00;;;;;;4973987;28;20330;-82
2021/06/27 07:34:33;;;;;;;17.08;9.63;;;21.70;79.90;;;;;;4992220;28;20026;-82
2021/06/27 07:37:00;;;;;;;16.25;9.15;;;21.70;79.70;;;;;;4977621;28;20549;-81
2021/06/27 07:39:25;;;;;;;16.50;9.10;;;21.80;79.60;;;;;;4978019;28;20037;-83
2021/06/27 07:41:51;;;;;;;16.95;9.82;;;21.90;79.50;;;;;;4996146;28;20382;-81
2021/06/27 07:44:17;;;;;;;19.60;10.40;;;21.90;79.20;;;;;;4995335;28;20037;-81
2021/06/27 07:46:42;;;;;;;15.55;8.98;;;22.00;79.10;;;;;;4978495;28;20027;-81
2021/06/27 07:49:08;;;;;;;15.07;9.05;;;22.00;79.00;;;;;;4977879;28;20038;-81
2021/06/27 07:51:34;;;;;;;15.82;9.15;;;22.10;79.00;;;;;;4996435;28;20100;-81
2021/06/27 07:53:59;;;;;;;12.73;8.55;;;22.10;78.90;;;;;;4980454;28;20022;-81
2021/06/27 07:56:25;;;;;;;14.98;9.13;;;22.10;78.90;;;;;;4995269;28;20529;-81
2021/06/27 07:58:51;;;;;;;16.85;10.02;;;22.20;78.80;;;;;;4978282;28;20065;-81
2021/06/27 08:01:16;;;;;;;18.55;10.35;;;22.10;78.60;;;;;;4977645;28;20073;-81
2021/06/27 08:03:42;;;;;;;14.95;8.95;;;22.20;78.60;;;;;;4995660;28;20033;-81
2021/06/27 08:06:08;;;;;;;16.42;9.07;;;22.20;78.60;;;;;;4995062;28;20026;-81
2021/06/27 08:08:33;;;;;;;16.48;8.43;;;22.20;78.50;;;;;;4974142;28;20061;-81
2021/06/27 08:10:59;;;;;;;14.57;9.50;;;22.20;78.50;;;;;;4975969;28;20031;-81
2021/06/27 08:13:25;;;;;;;14.70;9.05;;;22.20;78.40;;;;;;4974270;28;20045;-82
2021/06/27 08:15:50;;;;;;;14.43;8.40;;;22.30;78.30;;;;;;4975862;28;20027;-82
2021/06/27 08:18:16;;;;;;;16.15;9.07;;;22.30;78.30;;;;;;4974318;28;20031;-82
2021/06/27 08:20:42;;;;;;;15.63;8.48;;;22.40;78.20;;;;;;4976219;28;20023;-82
2021/06/27 08:23:09;;;;;;;15.23;8.82;;;22.40;78.10;;;;;;4973973;28;20058;-81
2021/06/27 08:25:35;;;;;;;15.20;8.02;;;22.50;78.00;;;;;;4975982;28;20023;-82
2021/06/27 08:28:01;;;;;;;14.63;8.73;;;22.60;78.00;;;;;;4974452;28;20030;-82
2021/06/27 08:30:27;;;;;;;12.82;8.10;;;22.60;77.90;;;;;;4973920;28;20085;-82
2021/06/27 08:32:53;;;;;;;14.68;8.70;;;22.60;77.80;;;;;;4974534;28;20018;-82
2021/06/27 08:35:22;;;;;;;12.00;7.65;;;22.60;77.70;;;;;;4973895;28;20026;-82
2021/06/27 08:37:50;;;;;;;16.92;9.50;;;22.70;77.80;;;;;;4974337;28;20125;-82
2021/06/27 08:40:17;;;;;;;13.65;8.63;;;22.70;77.60;;;;;;4974917;28;20097;-82
2021/06/27 08:42:43;;;;;;;13.40;7.75;;;22.70;77.50;;;;;;4974310;28;20019;-82
2021/06/27 08:45:10;;;;;;;13.30;7.72;;;22.70;77.40;;;;;;4974932;28;20031;-82
2021/06/27 08:47:38;;;;;;;13.57;7.55;;;22.80;77.30;;;;;;4974526;28;20027;-82
2021/06/27 08:50:06;;;;;;;12.57;8.20;;;22.80;77.20;;;;;;4975557;28;20110;-82
2021/06/27 08:52:33;;;;;;;13.07;7.38;;;22.80;77.00;;;;;;4973593;28;20348;-82
2021/06/27 08:54:59;;;;;;;12.32;7.50;;;22.90;77.00;;;;;;4974102;28;20034;-82
2021/06/27 08:57:25;;;;;;;12.60;7.50;;;22.90;76.90;;;;;;4974627;28;20019;-82
2021/06/27 08:59:52;;;;;;;16.35;8.20;;;23.00;76.80;;;;;;4975439;28;20023;-81
2021/06/27 09:02:18;;;;;;;12.63;7.50;;;23.00;76.50;;;;;;4974601;28;20030;-82
2021/06/27 09:04:44;;;;;;;10.85;6.95;;;23.00;76.40;;;;;;4975106;28;20027;-82
2021/06/27 09:07:37;;;;;;;13.32;7.45;;;23.10;76.40;;;;;;4973337;28;20356;-82
2021/06/27 09:10:15;;;;;;;13.93;7.72;;;23.10;76.30;;;;;;4973385;28;20142;-82
2021/06/27 09:12:50;;;;;;;11.38;7.18;;;23.20;76.30;;;;;;4973627;28;20035;-82
2021/06/27 09:15:37;;;;;;;13.55;7.40;;;23.20;76.20;;;;;;4974400;28;20106;-82
2021/06/27 09:18:15;;;;;;;12.52;6.75;;;23.20;76.10;;;;;;4973637;28;20533;-81
2021/06/27 09:20:43;;;;;;;13.52;7.75;;;23.30;76.00;;;;;;4973570;28;20037;-82
2021/06/27 09:23:10;;;;;;;12.32;7.38;;;23.30;75.90;;;;;;4973411;28;20388;-82
2021/06/27 09:25:37;;;;;;;12.68;7.03;;;23.40;75.80;;;;;;4973452;28;20019;-82
2021/06/27 09:28:03;;;;;;;14.48;7.97;;;23.50;75.70;;;;;;4973341;28;20102;-82
2021/06/27 09:30:30;;;;;;;13.13;8.15;;;23.50;75.40;;;;;;4972942;28;20055;-82
2021/06/27 09:33:05;;;;;;;12.20;7.18;;;23.60;75.30;;;;;;4973269;28;20023;-81
2021/06/27 09:35:40;;;;;;;12.38;6.88;;;23.60;75.20;;;;;;4974070;28;20027;-82
2021/06/27 09:38:35;;;;;;;12.90;7.63;;;23.70;75.20;;;;;;4973292;28;20054;-82
2021/06/27 09:41:03;;;;;;;12.65;7.82;;;23.80;75.20;;;;;;4974418;28;20376;-82
2021/06/27 09:43:31;;;;;;;9.98;6.45;;;23.70;74.80;;;;;;4973873;28;20019;-82
2021/06/27 09:46:10;;;;;;;9.25;5.20;;;23.80;74.70;;;;;;4972860;28;20021;-81
2021/06/27 09:48:56;;;;;;;12.68;7.55;;;23.80;74.50;;;;;;4973739;28;20023;-82
2021/06/27 09:51:25;;;;;;;10.93;7.03;;;23.90;74.30;;;;;;4972438;28;20360;-82
2021/06/27 09:53:51;;;;;;;10.13;6.20;;;23.90;74.20;;;;;;4972909;28;20071;-82
2021/06/27 09:56:18;;;;;;;9.95;6.20;;;23.90;74.00;;;;;;4972263;28;20511;-81
2021/06/27 09:58:59;;;;;;;9.35;5.82;;;24.00;73.90;;;;;;4973100;28;20027;-82
2021/06/27 10:01:25;;;;;;;11.55;6.63;;;24.00;73.70;;;;;;4972147;28;20389;-81
2021/06/27 10:03:56;;;;;;;10.32;6.70;;;24.00;73.60;;;;;;4972963;28;20121;-82
2021/06/27 10:06:27;;;;;;;12.05;6.25;;;24.00;73.50;;;;;;4973553;28;20026;-81
2021/06/27 10:08:54;;;;;;;10.13;6.10;;;24.10;73.40;;;;;;4981333;28;20051;-81
2021/06/27 10:11:23;;;;;;;11.23;6.20;;;24.20;73.20;;;;;;4992913;28;20040;-82
2021/06/27 10:13:53;;;;;;;10.52;6.50;;;24.20;73.10;;;;;;4993601;28;20026;-82
2021/06/27 10:16:28;;;;;;;17.55;10.75;;;24.20;73.10;;;;;;4975373;28;20034;-82
2021/06/27 10:18:55;;;;;;;12.57;7.53;;;24.20;73.10;;;;;;4994402;28;20030;-81
2021/06/27 10:21:21;;;;;;;10.63;6.28;;;24.30;73.00;;;;;;4975921;28;20064;-81
2021/06/27 10:23:47;;;;;;;9.68;5.68;;;24.30;72.80;;;;;;4976126;28;20042;-82
2021/06/27 10:26:17;;;;;;;9.55;5.90;;;24.30;72.80;;;;;;4976580;28;20032;-82
2021/06/27 10:28:44;;;;;;;10.13;5.70;;;24.40;72.80;;;;;;4976918;28;20085;-83
2021/06/27 10:31:14;;;;;;;11.13;6.32;;;24.40;72.70;;;;;;4975723;28;20030;-81
2021/06/27 10:33:40;;;;;;;9.52;5.95;;;24.40;73.20;;;;;;4975805;28;20049;-81
2021/06/27 10:36:08;;;;;;;9.57;5.40;;;24.40;72.40;;;;;;4975548;28;20080;-81
2021/06/27 10:38:35;;;;;;;8.13;5.10;;;24.50;72.20;;;;;;4992303;28;20023;-82
2021/06/27 10:41:01;;;;;;;8.45;5.00;;;24.50;71.80;;;;;;4975111;28;20030;-82
2021/06/27 10:43:56;;;;;;;9.48;5.07;;;24.60;71.60;;;;;;4974691;28;20037;-82
2021/06/27 10:46:40;;;;;;;9.02;4.82;;;24.70;71.40;;;;;;4989929;28;20490;-82
2021/06/27 10:49:07;;;;;;;8.40;4.97;;;24.80;72.00;;;;;;4975612;28;20026;-82
2021/06/27 10:52:08;;;;;;;9.07;5.25;;;24.80;71.20;;;;;;4974590;28;20046;-82
2021/06/27 10:54:38;;;;;;;7.45;5.18;;;24.90;71.00;;;;;;4991768;28;20537;-82
2021/06/27 10:57:11;;;;;;;8.63;5.00;;;25.10;70.80;;;;;;4992338;28;20030;-82
2021/06/27 10:59:52;;;;;;;9.43;5.78;;;25.20;70.50;;;;;;4974650;28;20034;-82
2021/06/27 11:02:22;;;;;;;8.82;5.82;;;25.30;70.10;;;;;;4992269;28;20102;-83
2021/06/27 11:04:53;;;;;;;7.47;5.03;;;25.40;69.90;;;;;;4975319;28;20061;-82
2021/06/27 11:07:35;;;;;;;7.60;4.68;;;25.50;69.60;;;;;;4992055;28;20031;-82
2021/06/27 11:10:19;;;;;;;7.72;4.40;;;25.60;69.00;;;;;;4974750;28;20050;-82
2021/06/27 11:13:00;;;;;;;8.48;5.35;;;25.70;68.70;;;;;;4996806;28;20019;-82
2021/06/27 11:15:27;;;;;;;;;;;25.80;68.50;;;;;;4996313;28;20074;-82
2021/06/27 11:17:58;;;;;;;9.25;4.75;;;25.80;68.50;;;;;;4978975;28;19906;-82
2021/06/27 11:20:25;;;;;;;7.82;4.85;;;25.90;68.10;;;;;;4978476;28;20426;-82
2021/06/27 11:22:53;;;;;;;7.68;4.65;;;26.00;67.70;;;;;;4996130;28;20030;-82
2021/06/27 11:25:39;;;;;;;7.13;4.25;;;26.20;67.50;;;;;;4978146;28;20419;-83
2021/06/27 11:28:20;;;;;;;5.93;4.07;;;26.40;67.10;;;;;;4996484;28;20077;-82
2021/06/27 11:30:50;;;;;;;6.22;3.65;;;26.60;66.70;;;;;;4979091;28;20026;-82
2021/06/27 11:33:22;;;;;;;6.22;4.25;;;26.70;66.50;;;;;;4995829;28;20501;-82
2021/06/27 11:35:58;;;;;;;5.75;3.38;;;26.80;65.90;;;;;;4978705;28;20077;-82
2021/06/27 11:38:40;;;;;;;6.90;3.55;;;26.90;65.70;;;;;;4978488;28;20026;-82
2021/06/27 11:41:25;;;;;;;6.78;4.10;;;27.00;65.20;;;;;;4979080;28;20451;-82
2021/06/27 11:43:57;;;;;;;8.63;3.78;;;27.10;64.30;;;;;;4996784;28;20049;-82
2021/06/27 11:46:37;;;;;;;6.18;4.18;;;27.10;64.30;;;;;;4995985;28;20586;-82
2021/06/27 11:49:15;;;;;;;5.95;3.92;;;27.10;63.90;;;;;;4979014;28;20026;-82
2021/06/27 11:51:49;;;;;;;5.82;3.72;;;27.10;63.80;;;;;;4995678;28;20030;-81
2021/06/27 11:54:18;;;;;;;5.82;3.53;;;27.20;63.40;;;;;;4978775;28;20379;-82
2021/06/27 11:56:57;;;;;;;6.10;3.97;;;27.30;63.30;;;;;;4978163;28;20474;-82
2021/06/27 11:59:26;;;;;;;5.45;3.58;;;27.40;62.80;;;;;;4995515;28;20030;-82
2021/06/27 12:02:07;;;;;;;5.32;3.35;;;27.50;62.40;;;;;;4978210;28;20116;-81
2021/06/27 12:04:44;;;;;;;5.55;3.50;;;27.70;62.10;;;;;;4977778;28;20027;-82
2021/06/27 12:07:39;;;;;;;5.80;3.15;;;27.90;61.50;;;;;;4996099;28;20431;-82
2021/06/27 12:10:11;;;;;;;5.25;3.63;;;28.00;60.60;;;;;;4978029;28;20053;-82
2021/06/27 12:12:45;;;;;;;6.03;3.60;;;28.00;60.00;;;;;;4977891;28;20022;-81
2021/06/27 12:15:17;;;;;;;6.70;3.88;;;28.10;59.50;;;;;;4978203;28;20027;-81
2021/06/27 12:17:45;;;;;;;4.88;3.25;;;28.30;59.50;;;;;;4994656;28;20065;-81
2021/06/27 12:20:12;;;;;;;4.18;2.92;;;28.30;59.30;;;;;;4995308;28;20422;-82
2021/06/27 12:23:11;;;;;;;5.93;3.10;;;28.50;59.00;;;;;;4993657;28;20026;-82
2021/06/27 12:25:49;;;;;;;4.90;2.95;;;28.60;58.90;;;;;;4946034;28;20057;-82
2021/06/27 12:28:28;;;;;;;6.78;3.10;;;28.70;58.70;;;;;;4977832;28;20030;-82
2021/06/27 12:30:56;;;;;;;5.70;3.25;;;28.80;58.20;;;;;;4995120;28;20391;-81
2021/06/27 12:33:25;;;;;;;3.60;2.65;;;28.90;58.00;;;;;;4977689;28;20583;-82
2021/06/27 12:36:03;;;;;;;4.40;2.75;;;29.00;57.80;;;;;;4995103;28;20029;-81
2021/06/27 12:38:29;;;;;;;4.43;2.80;;;29.20;57.60;;;;;;4994742;28;20069;-82
2021/06/27 12:40:57;;;;;;;4.45;2.90;;;29.30;57.40;;;;;;4977567;28;20480;-82
2021/06/27 12:43:29;;;;;;;4.03;2.80;;;29.50;56.80;;;;;;4977631;28;20034;-82